Time;durP1;ratioP1;P1;durP2;ratioP2;P2;SDS_P1;SDS_P2;PMS_P1;PMS_P2;Temp;Humidity;BMP_temperature;BMP_pressure;BME280_temperature;BME280_humidity;BME280_pressure;Samples;Min_cycle;Max_cycle;Signal;HPM_P1;HPM_P2
2022/01/27 00:02:27;;;;;;;27.02;15.50;;;1.70;99.90;;;;;;5018627;28;20725;-59
2022/01/27 00:05:04;;;;;;;27.85;14.20;;;2.00;99.90;;;;;;5021302;28;20221;-59
2022/01/27 00:07:32;;;;;;;31.63;15.98;;;1.40;99.90;;;;;;5018828;28;21201;-59
2022/01/27 00:12:33;;;;;;;25.92;15.35;;;1.90;99.90;;;;;;5019434;28;20174;-58
2022/01/27 00:15:09;;;;;;;36.53;17.43;;;1.80;99.90;;;;;;5025201;28;20659;-59
2022/01/27 00:17:40;;;;;;;29.88;16.60;;;1.60;99.90;;;;;;5012984;28;20523;-59
2022/01/27 00:20:06;;;;;;;30.48;16.05;;;1.50;99.90;;;;;;5021671;28;20183;-59
2022/01/27 00:22:32;;;;;;;29.13;16.20;;;1.60;99.90;;;;;;5019863;28;20656;-60
2022/01/27 00:24:58;;;;;;;26.97;15.63;;;1.90;99.90;;;;;;5015844;28;20264;-60
2022/01/27 00:27:23;;;;;;;31.53;17.20;;;1.90;99.90;;;;;;5020379;28;20638;-59
2022/01/27 00:29:49;;;;;;;33.00;15.90;;;1.50;99.90;;;;;;5025497;28;20658;-59
2022/01/27 00:32:14;;;;;;;34.00;17.23;;;1.90;99.90;;;;;;5007240;28;20285;-59
2022/01/27 00:34:40;;;;;;;38.23;17.80;;;2.10;99.90;;;;;;5022884;28;20214;-59
2022/01/27 00:37:06;;;;;;;35.53;18.20;;;1.20;99.90;;;;;;5023422;28;20186;-60
2022/01/27 00:39:31;;;;;;;30.80;16.90;;;0.80;99.90;;;;;;5023248;28;20273;-60
2022/01/27 00:41:57;;;;;;;29.60;15.77;;;1.20;99.90;;;;;;5014451;28;20242;-60
2022/01/27 00:44:23;;;;;;;32.83;17.43;;;1.50;99.90;;;;;;5017057;28;20276;-60
2022/01/27 00:46:48;;;;;;;27.08;16.45;;;0.90;99.90;;;;;;5008539;28;20693;-59
2022/01/27 00:49:14;;;;;;;32.87;18.43;;;1.60;99.90;;;;;;5017946;28;20178;-60
2022/01/27 00:51:42;;;;;;;31.47;16.40;;;1.80;99.90;;;;;;5020379;28;20198;-60
2022/01/27 00:54:15;;;;;;;32.72;17.90;;;1.00;99.90;;;;;;5017691;28;20198;-59
2022/01/27 00:56:54;;;;;;;33.95;16.63;;;1.50;99.90;;;;;;5016374;28;20179;-59
2022/01/27 01:01:53;;;;;;;35.83;17.40;;;1.40;99.90;;;;;;5013573;28;20204;-60
2022/01/27 01:04:25;;;;;;;29.95;17.58;;;1.80;99.90;;;;;;5001952;28;20298;-59
2022/01/27 01:06:52;;;;;;;30.08;16.75;;;1.80;99.90;;;;;;5013163;28;20202;-59
2022/01/27 01:20:27;;;;;;;33.53;17.15;;;2.00;99.90;;;;;;5021723;28;20678;-59
2022/01/27 01:32:54;;;;;;;37.70;18.90;;;1.90;99.90;;;;;;5009952;28;20187;-59
2022/01/27 01:35:29;;;;;;;35.38;17.42;;;2.40;99.90;;;;;;5010959;28;20187;-59
2022/01/27 01:37:56;;;;;;;33.75;17.52;;;1.50;99.90;;;;;;5016347;28;20186;-59
2022/01/27 01:40:22;;;;;;;33.25;16.38;;;1.90;99.90;;;;;;5011999;28;20183;-59
2022/01/27 01:42:47;;;;;;;34.40;16.87;;;2.10;99.90;;;;;;5026831;28;20277;-59
2022/01/27 01:45:17;;;;;;;26.20;14.67;;;2.00;99.90;;;;;;5021136;28;20202;-59
2022/01/27 01:47:44;;;;;;;30.95;16.98;;;2.10;99.90;;;;;;5007018;28;20539;-59
2022/01/27 01:50:11;;;;;;;32.30;16.02;;;2.00;99.90;;;;;;5023200;28;20217;-59
2022/01/27 01:52:38;;;;;;;28.20;16.17;;;1.90;99.90;;;;;;5016324;28;20294;-59
2022/01/27 01:55:05;;;;;;;27.63;16.90;;;1.50;99.90;;;;;;5016739;28;20278;-59
2022/01/27 01:57:31;;;;;;;32.67;17.30;;;1.60;99.90;;;;;;5027439;28;20236;-59
2022/01/27 01:59:57;;;;;;;33.20;15.70;;;2.10;99.90;;;;;;5027567;28;20187;-60
2022/01/27 02:02:23;;;;;;;37.30;17.63;;;1.80;99.90;;;;;;5004741;28;21296;-59
2022/01/27 02:04:48;;;;;;;29.57;16.90;;;1.60;99.90;;;;;;5024248;28;20258;-60
2022/01/27 02:07:28;;;;;;;30.60;15.50;;;2.00;99.90;;;;;;5020111;28;20240;-60
2022/01/27 02:17:59;;;;;;;26.95;16.42;;;2.00;99.90;;;;;;5016938;28;20685;-60
2022/01/27 02:20:25;;;;;;;30.15;16.52;;;1.30;99.90;;;;;;5015914;28;20196;-59
2022/01/27 02:22:51;;;;;;;30.53;16.63;;;1.50;99.90;;;;;;5018255;28;22089;-59
2022/01/27 02:25:17;;;;;;;27.00;15.70;;;1.20;99.90;;;;;;5023526;28;21035;-59
2022/01/27 02:27:44;;;;;;;31.73;16.30;;;1.80;99.90;;;;;;5025200;28;20206;-60
2022/01/27 02:30:09;;;;;;;27.77;16.63;;;1.80;99.90;;;;;;5019960;28;20186;-59
2022/01/27 02:32:35;;;;;;;27.53;16.50;;;1.60;99.90;;;;;;5015414;28;20193;-59
2022/01/27 02:35:02;;;;;;;31.70;17.20;;;1.60;99.90;;;;;;5017227;28;21016;-59
2022/01/27 02:37:28;;;;;;;28.95;15.05;;;1.60;99.90;;;;;;5025584;28;20220;-59
2022/01/27 02:39:54;;;;;;;26.55;15.90;;;1.60;99.90;;;;;;5022214;28;20186;-59
2022/01/27 02:42:34;;;;;;;29.58;17.13;;;1.90;99.90;;;;;;5015600;28;20193;-59
2022/01/27 02:45:12;;;;;;;28.65;17.08;;;1.90;99.90;;;;;;5018086;28;20210;-60
2022/01/27 02:47:38;;;;;;;27.42;15.32;;;1.20;99.90;;;;;;5022023;28;20210;-59
2022/01/27 02:50:05;;;;;;;25.90;16.77;;;2.30;99.90;;;;;;5018467;28;20555;-59
2022/01/27 02:52:32;;;;;;;31.00;16.13;;;2.00;99.90;;;;;;5018844;28;20191;-59
2022/01/27 02:54:57;;;;;;;23.58;15.13;;;1.30;99.90;;;;;;5016978;28;20268;-60
2022/01/27 02:57:24;;;;;;;25.73;15.10;;;2.00;99.90;;;;;;5015034;28;20182;-59
2022/01/27 02:59:50;;;;;;;25.77;15.05;;;1.50;99.90;;;;;;5019298;28;20186;-60
2022/01/27 03:02:16;;;;;;;26.70;15.60;;;1.80;99.90;;;;;;5017757;28;20215;-59
2022/01/27 03:04:42;;;;;;;26.90;15.02;;;2.10;99.90;;;;;;5023302;28;20215;-60
2022/01/27 03:07:07;;;;;;;27.93;15.00;;;1.50;99.90;;;;;;5021194;28;20695;-60
2022/01/27 03:09:34;;;;;;;26.67;15.27;;;2.20;99.90;;;;;;5013017;28;20221;-60
2022/01/27 03:12:07;;;;;;;27.02;16.10;;;2.00;99.90;;;;;;5015770;28;20429;-59
2022/01/27 03:14:33;;;;;;;26.08;13.55;;;2.40;99.90;;;;;;5019363;28;20207;-60
2022/01/27 03:17:00;;;;;;;25.33;14.73;;;1.80;99.90;;;;;;5017442;28;20179;-60
2022/01/27 03:19:26;;;;;;;24.00;15.25;;;2.30;99.90;;;;;;5023959;28;20185;-60
2022/01/27 03:21:53;;;;;;;24.50;15.45;;;2.30;99.90;;;;;;5021323;28;20714;-59
2022/01/27 03:24:20;;;;;;;27.00;15.02;;;2.20;99.90;;;;;;5028840;28;20206;-60
2022/01/27 03:26:46;;;;;;;21.80;13.60;;;2.00;99.90;;;;;;5006703;28;20222;-60
2022/01/27 03:29:12;;;;;;;24.42;14.50;;;2.30;99.90;;;;;;5016891;28;20194;-59
2022/01/27 03:31:38;;;;;;;22.17;13.53;;;1.80;99.90;;;;;;5015966;28;20634;-60
2022/01/27 03:34:03;;;;;;;24.50;14.97;;;2.00;99.90;;;;;;5030500;28;20240;-59
2022/01/27 03:36:29;;;;;;;24.83;14.87;;;2.10;99.90;;;;;;5024052;28;20201;-59
2022/01/27 03:38:55;;;;;;;22.80;13.27;;;2.00;99.90;;;;;;5022443;28;21067;-59
2022/01/27 03:41:22;;;;;;;21.33;13.93;;;2.60;99.90;;;;;;5022352;28;20191;-59
2022/01/27 03:43:50;;;;;;;22.48;13.68;;;1.50;99.90;;;;;;5028037;28;20202;-58
2022/01/27 03:46:17;;;;;;;19.05;13.88;;;1.60;99.90;;;;;;5022158;28;20233;-58
2022/01/27 03:48:43;;;;;;;23.73;14.57;;;2.20;99.90;;;;;;5025863;28;20236;-59
2022/01/27 03:51:08;;;;;;;20.45;13.45;;;2.00;99.90;;;;;;5021075;28;20537;-59
2022/01/27 03:53:34;;;;;;;21.57;13.27;;;2.20;99.90;;;;;;5029686;28;20207;-59
2022/01/27 03:56:00;;;;;;;23.53;13.57;;;2.10;99.90;;;;;;5016640;28;20210;-59
2022/01/27 03:58:25;;;;;;;18.83;12.60;;;1.60;99.90;;;;;;5021967;28;20190;-59
2022/01/27 04:00:51;;;;;;;23.80;12.97;;;1.60;99.90;;;;;;5016570;28;20843;-59
2022/01/27 04:03:19;;;;;;;22.13;14.05;;;2.00;99.90;;;;;;5021523;28;20218;-59
2022/01/27 04:05:52;;;;;;;18.38;12.40;;;1.60;99.90;;;;;;5020901;28;20856;-59
2022/01/27 04:08:18;;;;;;;21.42;14.05;;;2.10;99.90;;;;;;5020158;28;20287;-59
2022/01/27 04:10:44;;;;;;;20.75;12.70;;;1.90;99.90;;;;;;5013228;28;20209;-60
2022/01/27 04:13:10;;;;;;;22.92;13.45;;;2.00;99.90;;;;;;5017771;28;20228;-59
2022/01/27 04:15:37;;;;;;;25.20;13.20;;;1.00;99.90;;;;;;5014060;28;20184;-59
2022/01/27 04:18:04;;;;;;;21.48;13.75;;;1.50;99.90;;;;;;5019912;28;20183;-59
2022/01/27 04:20:30;;;;;;;23.70;14.95;;;1.40;99.90;;;;;;5015671;28;20277;-58
2022/01/27 04:22:55;;;;;;;20.50;12.27;;;1.10;99.90;;;;;;5019823;28;20182;-59
2022/01/27 04:25:21;;;;;;;21.73;13.93;;;1.30;99.90;;;;;;5006116;28;20239;-59
2022/01/27 04:27:51;;;;;;;22.20;14.60;;;1.40;99.90;;;;;;5021781;28;20214;-59
2022/01/27 04:30:19;;;;;;;20.63;12.55;;;2.00;99.90;;;;;;5016748;28;20190;-59
2022/01/27 04:32:58;;;;;;;22.88;13.77;;;1.20;99.90;;;;;;5019469;28;20183;-59
2022/01/27 04:35:27;;;;;;;26.23;14.65;;;2.00;99.90;;;;;;5014909;28;20194;-59
2022/01/27 04:38:14;;;;;;;22.88;14.63;;;1.30;99.90;;;;;;5025836;28;20557;-60
2022/01/27 04:43:40;;;;;;;19.10;13.48;;;2.30;99.90;;;;;;5004608;28;20221;-59
2022/01/27 04:48:41;;;;;;;30.63;15.80;;;2.50;99.90;;;;;;5020749;28;20685;-59
2022/01/27 04:51:10;;;;;;;27.15;16.33;;;1.90;99.90;;;;;;5016511;28;20178;-59
2022/01/27 04:54:26;;;;;;;27.48;17.50;;;2.20;99.90;;;;;;5018477;28;20285;-59
2022/01/27 04:56:24;;;;;;;27.60;16.40;;;2.10;99.90;;;;;;5008698;28;20198;-59
2022/01/27 04:58:55;;;;;;;25.65;15.75;;;2.00;99.90;;;;;;5021983;28;20182;-60
2022/01/27 05:01:26;;;;;;;24.50;14.35;;;2.20;99.90;;;;;;5015218;28;20656;-59
2022/01/27 05:03:59;;;;;;;26.42;16.45;;;2.20;99.90;;;;;;5015365;28;20264;-60
2022/01/27 05:06:25;;;;;;;26.60;15.15;;;2.00;99.90;;;;;;5021443;28;20301;-59
2022/01/27 05:08:50;;;;;;;28.20;14.47;;;2.20;99.90;;;;;;5027912;28;20265;-59
2022/01/27 05:11:24;;;;;;;24.10;15.60;;;2.10;99.90;;;;;;5020897;28;20199;-60
2022/01/27 05:13:55;;;;;;;21.92;15.48;;;1.30;99.90;;;;;;5022942;28;20216;-59
2022/01/27 05:16:21;;;;;;;25.95;15.60;;;2.00;99.90;;;;;;5015908;28;20178;-59
2022/01/27 05:18:47;;;;;;;25.30;16.10;;;2.00;99.90;;;;;;5021995;28;20248;-59
2022/01/27 05:21:13;;;;;;;23.30;15.47;;;1.50;99.90;;;;;;5022772;28;20240;-59
2022/01/27 05:23:38;;;;;;;25.23;16.17;;;1.40;99.90;;;;;;5015009;28;20990;-59
2022/01/27 05:26:04;;;;;;;30.70;18.10;;;1.70;99.90;;;;;;5016461;28;20485;-59
2022/01/27 05:28:30;;;;;;;30.43;17.57;;;2.30;99.90;;;;;;5021357;28;20183;-59
2022/01/27 05:30:56;;;;;;;28.07;17.60;;;1.50;99.90;;;;;;5016010;28;20447;-59
2022/01/27 05:33:21;;;;;;;28.27;17.52;;;2.40;99.90;;;;;;5019097;28;20225;-60
2022/01/27 05:35:47;;;;;;;25.53;18.07;;;2.00;99.90;;;;;;5018313;28;20304;-58
2022/01/27 05:38:16;;;;;;;30.07;17.10;;;1.90;99.90;;;;;;5021567;28;20186;-59
2022/01/27 05:40:43;;;;;;;28.23;17.98;;;1.30;99.90;;;;;;5017610;28;20182;-59
2022/01/27 05:43:10;;;;;;;30.98;17.85;;;1.50;99.90;;;;;;5021555;28;20193;-60
2022/01/27 05:45:36;;;;;;;28.10;18.35;;;2.00;99.90;;;;;;5019630;28;20530;-61
2022/01/27 05:48:03;;;;;;;31.30;19.67;;;2.00;99.90;;;;;;5004340;28;20187;-59
2022/01/27 05:50:29;;;;;;;28.55;18.50;;;1.70;99.90;;;;;;5016163;28;20179;-59
2022/01/27 05:52:54;;;;;;;27.60;19.40;;;1.90;99.90;;;;;;5019530;28;20200;-59
2022/01/27 05:55:20;;;;;;;32.80;19.73;;;1.50;99.90;;;;;;5022063;28;20436;-59
2022/01/27 05:57:46;;;;;;;30.17;19.67;;;1.60;99.90;;;;;;5019051;28;20194;-60
2022/01/27 06:00:11;;;;;;;25.30;16.83;;;1.60;99.90;;;;;;5017243;28;20274;-60
2022/01/27 06:02:38;;;;;;;26.77;17.20;;;1.50;99.90;;;;;;5012047;28;20274;-59
2022/01/27 06:05:04;;;;;;;29.30;17.88;;;1.30;99.90;;;;;;5019247;28;20503;-60
2022/01/27 06:07:30;;;;;;;27.45;17.45;;;1.70;99.90;;;;;;5015149;28;20211;-60
2022/01/27 06:09:56;;;;;;;25.83;17.10;;;1.60;99.90;;;;;;5013794;28;20265;-60
2022/01/27 06:12:22;;;;;;;26.70;16.10;;;1.50;99.90;;;;;;5009981;28;20175;-60
2022/01/27 06:14:48;;;;;;;27.73;17.00;;;1.80;99.90;;;;;;5017253;28;20723;-60
2022/01/27 06:17:13;;;;;;;25.60;16.80;;;1.80;99.90;;;;;;5012157;28;20191;-61
2022/01/27 06:19:43;;;;;;;26.80;17.27;;;1.50;99.90;;;;;;5011547;28;20261;-60
2022/01/27 06:22:11;;;;;;;27.67;17.85;;;1.50;99.90;;;;;;5022788;28;20179;-60
2022/01/27 06:24:39;;;;;;;23.63;17.88;;;1.60;99.90;;;;;;5012621;28;20206;-60
2022/01/27 06:27:05;;;;;;;27.02;16.48;;;1.90;99.90;;;;;;5017641;28;21513;-60
2022/01/27 06:29:30;;;;;;;27.17;17.17;;;1.70;99.90;;;;;;5025110;28;20194;-60
2022/01/27 06:31:56;;;;;;;27.00;16.63;;;1.70;99.90;;;;;;5014856;28;20617;-60
2022/01/27 06:34:22;;;;;;;27.23;16.93;;;1.00;99.90;;;;;;5020966;28;20704;-58
2022/01/27 06:36:47;;;;;;;30.13;18.23;;;1.20;99.90;;;;;;5014955;28;20832;-61
2022/01/27 06:39:13;;;;;;;29.17;17.77;;;1.30;99.90;;;;;;5014222;28;20464;-59
2022/01/27 06:41:39;;;;;;;29.50;18.70;;;1.10;99.90;;;;;;5006641;28;20378;-59
2022/01/27 06:44:05;;;;;;;31.67;21.30;;;1.60;99.90;;;;;;5027279;28;20214;-60
2022/01/27 06:46:32;;;;;;;26.83;18.02;;;1.80;99.90;;;;;;5017911;28;20217;-61
2022/01/27 06:48:58;;;;;;;25.90;15.70;;;1.50;99.90;;;;;;5020030;28;20183;-59
2022/01/27 06:51:26;;;;;;;24.90;15.60;;;2.20;99.90;;;;;;5017411;28;20187;-60
2022/01/27 06:53:51;;;;;;;25.85;16.95;;;1.20;99.90;;;;;;5016440;28;20563;-59
2022/01/27 06:56:17;;;;;;;31.00;17.80;;;2.00;99.90;;;;;;5004653;28;20196;-61
2022/01/27 06:58:42;;;;;;;28.10;16.50;;;1.60;99.90;;;;;;5016531;28;20237;-59
2022/01/27 07:01:08;;;;;;;23.50;15.40;;;1.10;99.90;;;;;;5015449;28;20353;-60
2022/01/27 07:03:34;;;;;;;24.03;15.43;;;1.80;99.90;;;;;;5020984;28;20222;-60
2022/01/27 07:05:59;;;;;;;25.10;16.30;;;1.40;99.90;;;;;;5019235;28;20215;-59
2022/01/27 07:08:25;;;;;;;29.73;17.80;;;1.20;99.90;;;;;;5024309;28;20651;-59
2022/01/27 07:10:50;;;;;;;22.40;15.57;;;1.20;99.90;;;;;;5012373;28;21067;-59
2022/01/27 07:13:16;;;;;;;29.90;18.53;;;1.00;99.90;;;;;;5017886;28;20198;-62
2022/01/27 07:15:42;;;;;;;27.03;16.43;;;1.40;99.90;;;;;;5008831;28;20297;-61
2022/01/27 07:18:07;;;;;;;28.37;16.90;;;0.90;99.90;;;;;;5008715;28;20187;-61
2022/01/27 07:20:33;;;;;;;27.20;16.03;;;1.70;99.90;;;;;;5013787;28;21005;-63
2022/01/27 07:22:58;;;;;;;25.73;16.20;;;1.50;99.90;;;;;;5010976;28;20219;-65
2022/01/27 07:25:24;;;;;;;25.23;15.87;;;1.60;99.90;;;;;;5023084;28;20194;-65
2022/01/27 07:27:50;;;;;;;23.17;13.87;;;1.50;99.90;;;;;;5022612;28;20801;-65
2022/01/27 07:30:15;;;;;;;23.80;14.20;;;1.20;99.90;;;;;;5016516;28;20187;-65
2022/01/27 07:32:41;;;;;;;23.37;12.67;;;1.60;99.90;;;;;;5012450;28;20257;-66
2022/01/27 07:35:07;;;;;;;23.10;15.07;;;1.10;99.90;;;;;;5010504;28;20207;-67
2022/01/27 07:37:32;;;;;;;24.33;14.90;;;1.50;99.90;;;;;;5014902;28;20187;-68
2022/01/27 07:39:58;;;;;;;29.20;15.60;;;1.70;99.90;;;;;;5014911;28;20981;-67
2022/01/27 07:42:23;;;;;;;20.40;13.07;;;1.50;99.90;;;;;;5015287;28;20182;-64
2022/01/27 07:44:49;;;;;;;19.57;12.23;;;1.60;99.90;;;;;;5016613;28;20285;-65
2022/01/27 07:47:15;;;;;;;21.40;13.77;;;1.60;99.90;;;;;;5012598;28;20234;-64
2022/01/27 07:49:40;;;;;;;23.93;14.60;;;2.10;99.90;;;;;;5017293;28;20194;-66
2022/01/27 07:52:06;;;;;;;21.00;13.40;;;1.30;99.90;;;;;;5021317;28;20191;-77
2022/01/27 07:54:31;;;;;;;21.77;13.00;;;1.70;99.90;;;;;;5015241;28;20281;-74
2022/01/27 07:56:57;;;;;;;25.70;14.93;;;1.70;99.90;;;;;;5022640;28;20274;-71
2022/01/27 07:59:23;;;;;;;25.60;15.53;;;2.10;99.90;;;;;;5010924;28;20218;-70
2022/01/27 08:01:48;;;;;;;24.03;14.40;;;1.90;99.90;;;;;;5013924;28;20280;-69
2022/01/27 08:04:14;;;;;;;25.87;14.80;;;1.40;99.90;;;;;;5021301;28;20215;-58
2022/01/27 08:06:40;;;;;;;29.87;16.27;;;2.00;99.90;;;;;;5016203;28;20207;-58
2022/01/27 08:09:06;;;;;;;25.35;16.15;;;1.90;99.90;;;;;;5006011;28;20187;-63
2022/01/27 08:11:31;;;;;;;24.90;15.07;;;1.80;99.90;;;;;;5020158;28;20557;-63
2022/01/27 08:13:57;;;;;;;27.30;16.37;;;1.40;99.90;;;;;;5019435;28;20286;-65
2022/01/27 08:16:22;;;;;;;25.27;14.07;;;2.30;99.90;;;;;;5017068;28;20323;-64
2022/01/27 08:18:48;;;;;;;25.80;14.63;;;1.90;99.90;;;;;;5011791;28;20609;-64
2022/01/27 08:21:14;;;;;;;24.73;15.20;;;1.90;99.90;;;;;;5010073;28;20186;-64
2022/01/27 08:23:42;;;;;;;33.60;15.43;;;1.70;99.90;;;;;;5012587;28;20597;-68
2022/01/27 08:26:11;;;;;;;23.10;13.68;;;1.60;99.90;;;;;;5011930;28;21044;-69
2022/01/27 08:28:53;;;;;;;23.48;14.57;;;1.70;99.90;;;;;;5010358;28;20240;-68
2022/01/27 08:31:19;;;;;;;27.45;14.48;;;1.70;99.90;;;;;;5016271;28;20175;-69
2022/01/27 08:33:45;;;;;;;21.13;12.80;;;1.80;99.90;;;;;;5019034;28;20211;-67
2022/01/27 08:36:10;;;;;;;27.03;16.50;;;1.80;99.90;;;;;;5010594;28;20445;-68
2022/01/27 08:38:41;;;;;;;24.50;14.40;;;1.70;99.90;;;;;;5014894;28;20486;-67
2022/01/27 08:41:06;;;;;;;24.05;14.70;;;1.10;99.90;;;;;;5008217;28;20227;-66
2022/01/27 08:43:32;;;;;;;28.80;15.47;;;1.10;99.90;;;;;;5014750;28;20279;-67
2022/01/27 08:45:59;;;;;;;31.50;16.80;;;2.00;99.90;;;;;;5009366;28;20266;-64
2022/01/27 08:48:27;;;;;;;29.25;16.25;;;1.80;99.90;;;;;;5019661;28;20257;-64
2022/01/27 08:51:00;;;;;;;30.88;15.88;;;1.70;99.90;;;;;;5018498;28;20553;-65
2022/01/27 08:53:26;;;;;;;30.65;16.55;;;1.80;99.90;;;;;;5020324;28;20325;-65
2022/01/27 08:55:53;;;;;;;22.10;14.35;;;2.00;99.90;;;;;;5018287;28;20668;-66
2022/01/27 08:58:20;;;;;;;24.90;15.65;;;1.80;99.90;;;;;;5016619;28;20187;-65
2022/01/27 09:00:46;;;;;;;27.98;14.57;;;1.00;99.90;;;;;;5012992;28;20241;-70
2022/01/27 09:03:12;;;;;;;27.35;15.32;;;1.50;99.90;;;;;;5020970;28;20273;-68
2022/01/27 09:05:38;;;;;;;30.83;14.97;;;1.70;99.90;;;;;;5014850;28;20597;-61
2022/01/27 09:08:04;;;;;;;26.00;15.93;;;1.70;99.90;;;;;;5012867;28;20477;-60
2022/01/27 09:10:32;;;;;;;22.20;14.10;;;1.80;99.90;;;;;;5013714;28;20556;-63
2022/01/27 09:13:04;;;;;;;25.77;15.90;;;1.00;99.90;;;;;;5019235;28;20595;-64
2022/01/27 09:15:30;;;;;;;23.20;14.50;;;1.30;99.90;;;;;;5009212;28;20191;-64
2022/01/27 09:17:58;;;;;;;29.08;14.73;;;1.70;99.90;;;;;;5020374;28;20194;-61
2022/01/27 09:20:24;;;;;;;25.48;14.65;;;1.60;99.90;;;;;;5016708;28;20671;-65
2022/01/27 09:22:52;;;;;;;26.80;14.98;;;2.00;99.90;;;;;;5018251;28;20179;-62
2022/01/27 09:25:22;;;;;;;22.35;13.32;;;2.30;99.90;;;;;;5011659;28;20190;-63
2022/01/27 09:27:49;;;;;;;17.88;11.40;;;1.80;99.90;;;;;;5008292;28;20214;-62
2022/01/27 09:30:17;;;;;;;25.00;13.52;;;1.80;99.90;;;;;;5015394;28;20181;-64
2022/01/27 09:32:44;;;;;;;18.70;11.52;;;2.40;99.90;;;;;;5014878;28;20175;-64
2022/01/27 09:35:10;;;;;;;15.80;10.02;;;2.40;99.90;;;;;;5018015;28;20288;-70
2022/01/27 09:37:36;;;;;;;16.92;10.15;;;2.50;99.90;;;;;;5010603;28;20197;-63
2022/01/27 09:40:03;;;;;;;15.13;9.10;;;2.70;99.90;;;;;;5017855;28;20836;-62
2022/01/27 09:42:33;;;;;;;18.27;10.73;;;2.60;99.90;;;;;;5008314;28;20441;-65
2022/01/27 09:45:01;;;;;;;15.68;9.20;;;2.40;99.90;;;;;;5012484;28;20207;-66
2022/01/27 09:47:30;;;;;;;17.50;9.85;;;1.90;99.90;;;;;;5015990;28;20212;-65
2022/01/27 09:50:06;;;;;;;15.90;10.23;;;2.80;99.90;;;;;;5016054;28;20179;-61
2022/01/27 09:52:32;;;;;;;17.17;10.32;;;2.70;99.90;;;;;;5015714;28;20257;-56
2022/01/27 09:54:58;;;;;;;13.32;9.73;;;2.80;99.90;;;;;;5018871;28;20708;-56
2022/01/27 09:57:24;;;;;;;18.17;8.73;;;2.70;99.90;;;;;;5014455;28;20182;-56
2022/01/27 09:59:49;;;;;;;20.20;10.40;;;2.80;99.90;;;;;;5011875;28;20872;-57
2022/01/27 10:02:18;;;;;;;14.63;9.67;;;2.60;99.90;;;;;;5009290;28;20194;-58
2022/01/27 10:04:58;;;;;;;14.07;9.90;;;2.60;99.90;;;;;;5011947;28;20625;-58
2022/01/27 10:07:32;;;;;;;15.02;10.05;;;3.00;99.90;;;;;;5009922;28;20723;-58
2022/01/27 10:10:02;;;;;;;13.45;9.13;;;3.10;99.90;;;;;;5019349;28;20188;-58
2022/01/27 10:12:32;;;;;;;14.70;8.93;;;2.90;99.90;;;;;;5017939;28;20198;-59
2022/01/27 10:15:10;;;;;;;15.30;10.40;;;3.00;99.90;;;;;;5012853;28;20198;-66
2022/01/27 10:17:39;;;;;;;17.05;9.88;;;2.40;99.90;;;;;;5003513;28;20187;-68
2022/01/27 10:20:18;;;;;;;12.88;8.73;;;2.50;99.90;;;;;;5020114;28;20249;-67
2022/01/27 10:23:28;;;;;;;14.02;9.32;;;2.90;99.90;;;;;;5016430;28;20670;-63
2022/01/27 10:25:59;;;;;;;15.40;9.40;;;3.30;99.90;;;;;;5011580;28;20702;-66
2022/01/27 10:28:41;;;;;;;16.20;9.73;;;3.10;99.90;;;;;;5014080;28;20183;-67
2022/01/27 10:31:11;;;;;;;14.20;9.68;;;3.10;99.90;;;;;;5015235;28;20724;-57
2022/01/27 10:33:58;;;;;;;14.75;9.57;;;3.20;99.90;;;;;;5010299;28;20598;-57
2022/01/27 10:36:41;;;;;;;16.08;10.15;;;3.70;99.90;;;;;;5016998;28;20191;-61
2022/01/27 10:39:08;;;;;;;16.38;9.23;;;3.30;99.90;;;;;;5003680;28;20195;-60
2022/01/27 10:41:37;;;;;;;15.40;10.63;;;3.50;99.90;;;;;;5020937;28;20608;-60
2022/01/27 10:44:17;;;;;;;14.23;9.55;;;3.50;99.90;;;;;;5023236;28;20211;-62
2022/01/27 10:47:21;;;;;;;14.35;9.10;;;3.70;99.90;;;;;;5012874;28;20258;-61
2022/01/27 10:49:54;;;;;;;13.15;7.97;;;3.60;99.90;;;;;;5019108;28;20617;-61
2022/01/27 10:52:33;;;;;;;11.60;8.38;;;3.50;99.90;;;;;;5013374;28;20202;-58
2022/01/27 10:55:06;;;;;;;15.50;8.52;;;3.60;99.90;;;;;;5014237;28;20214;-66
2022/01/27 10:57:31;;;;;;;10.50;7.72;;;3.50;99.90;;;;;;5017527;28;20192;-65
2022/01/27 11:00:15;;;;;;;13.13;8.67;;;3.40;99.90;;;;;;5015362;28;20663;-65
2022/01/27 11:02:57;;;;;;;14.05;8.50;;;3.60;99.90;;;;;;5021487;28;20786;-67
2022/01/27 11:05:26;;;;;;;13.18;8.40;;;3.80;99.90;;;;;;5019887;28;20202;-68
2022/01/27 11:07:51;;;;;;;13.20;8.68;;;3.80;99.90;;;;;;5015126;28;20742;-63
2022/01/27 11:10:19;;;;;;;13.40;9.10;;;3.80;99.90;;;;;;5011195;28;20191;-62
2022/01/27 11:12:45;;;;;;;11.90;9.05;;;3.80;99.90;;;;;;5013733;28;20245;-58
2022/01/27 11:15:17;;;;;;;12.15;8.00;;;3.60;99.90;;;;;;5008417;28;20224;-57
2022/01/27 11:17:44;;;;;;;11.95;7.80;;;4.00;99.90;;;;;;5013642;28;20191;-57
2022/01/27 11:23:24;;;;;;;11.43;8.60;;;4.10;99.90;;;;;;5016637;28;20181;-57
2022/01/27 11:25:53;;;;;;;9.63;7.82;;;4.20;99.90;;;;;;5007906;28;20779;-57
2022/01/27 11:28:21;;;;;;;11.02;7.50;;;4.10;99.90;;;;;;5009302;28;20195;-56
2022/01/27 11:31:11;;;;;;;14.15;8.95;;;3.80;99.90;;;;;;5011211;28;20275;-73
2022/01/27 11:33:37;;;;;;;15.05;8.73;;;4.00;99.90;;;;;;5024444;28;20746;-70
2022/01/27 11:36:07;;;;;;;12.43;9.10;;;4.00;99.90;;;;;;5019547;28;20192;-73
2022/01/27 11:38:33;;;;;;;14.30;9.10;;;3.60;99.90;;;;;;5022392;28;20190;-72
2022/01/27 11:40:58;;;;;;;14.37;9.07;;;4.30;99.90;;;;;;5014245;28;20185;-69
2022/01/27 11:43:33;;;;;;;14.27;8.77;;;4.10;99.90;;;;;;5019634;28;20217;-70
2022/01/27 11:46:13;;;;;;;13.13;8.70;;;4.30;99.90;;;;;;5022219;28;20988;-69
2022/01/27 11:48:39;;;;;;;14.77;9.95;;;3.60;99.90;;;;;;5012849;28;20192;-67
2022/01/27 11:51:13;;;;;;;11.90;8.87;;;3.90;99.90;;;;;;5016222;28;20185;-67
2022/01/27 11:53:49;;;;;;;13.48;10.07;;;4.20;99.90;;;;;;5017593;28;20949;-63
2022/01/27 11:56:23;;;;;;;14.85;9.35;;;4.20;99.90;;;;;;5013854;28;20653;-64
2022/01/27 11:59:35;;;;;;;17.00;10.32;;;3.90;99.90;;;;;;5011829;28;20213;-66
2022/01/27 12:02:01;;;;;;;14.70;9.63;;;4.50;99.90;;;;;;5021759;28;20256;-64
2022/01/27 12:04:27;;;;;;;13.70;10.17;;;4.50;99.90;;;;;;5014171;28;20691;-62
2022/01/27 12:06:52;;;;;;;14.90;10.10;;;4.50;99.90;;;;;;5020928;28;20310;-62
2022/01/27 12:09:21;;;;;;;15.00;9.83;;;4.30;99.90;;;;;;5016022;28;20309;-67
2022/01/27 12:11:51;;;;;;;17.27;11.30;;;4.50;99.90;;;;;;5013704;28;20187;-67
2022/01/27 12:14:24;;;;;;;12.63;8.98;;;4.30;99.90;;;;;;5018554;28;20231;-69
2022/01/27 12:17:08;;;;;;;12.57;8.73;;;4.40;99.90;;;;;;5011790;28;20185;-74
2022/01/27 12:19:57;;;;;;;14.88;9.52;;;4.70;99.90;;;;;;5010966;28;20634;-69
2022/01/27 12:22:42;;;;;;;13.07;8.88;;;4.80;99.90;;;;;;5019799;28;20256;-68
2022/01/27 12:25:08;;;;;;;12.50;9.30;;;4.20;99.90;;;;;;5006305;28;20205;-62
2022/01/27 12:27:34;;;;;;;12.80;8.75;;;4.80;99.90;;;;;;5018980;28;20210;-63
2022/01/27 12:30:00;;;;;;;15.20;9.70;;;5.00;99.90;;;;;;5022068;28;20184;-63
2022/01/27 12:32:28;;;;;;;12.65;10.00;;;4.90;99.90;;;;;;5009722;28;20662;-61
2022/01/27 12:35:00;;;;;;;14.07;9.43;;;4.40;99.90;;;;;;5009981;28;20347;-63
2022/01/27 12:37:33;;;;;;;14.10;8.98;;;5.10;99.90;;;;;;5016317;28;20217;-63
2022/01/27 12:40:01;;;;;;;13.07;9.43;;;5.00;99.80;;;;;;5011674;28;20261;-65
2022/01/27 12:42:35;;;;;;;14.10;9.93;;;5.10;99.70;;;;;;5017537;28;20180;-65
2022/01/27 12:45:09;;;;;;;13.10;9.43;;;5.00;99.90;;;;;;5010394;28;20644;-63
2022/01/27 12:47:39;;;;;;;14.98;9.75;;;4.90;99.90;;;;;;5008230;28;20216;-64
2022/01/27 12:50:14;;;;;;;15.60;9.98;;;4.50;99.60;;;;;;5011243;28;20656;-65
2022/01/27 12:52:43;;;;;;;15.38;10.20;;;5.20;99.70;;;;;;5013408;28;20585;-61
2022/01/27 12:55:12;;;;;;;11.23;8.05;;;4.90;99.60;;;;;;5020638;28;20693;-61
2022/01/27 12:57:40;;;;;;;12.38;9.93;;;5.30;99.90;;;;;;5024141;28;20192;-61
2022/01/27 13:00:08;;;;;;;13.10;9.32;;;4.40;99.30;;;;;;5010491;28;20185;-61
2022/01/27 13:02:33;;;;;;;14.65;9.38;;;4.90;99.60;;;;;;5008748;28;20691;-62
2022/01/27 13:05:01;;;;;;;13.13;9.23;;;5.10;99.50;;;;;;5023580;28;20245;-62
2022/01/27 13:07:28;;;;;;;14.63;10.77;;;5.10;99.60;;;;;;5013361;28;20221;-61
2022/01/27 13:10:08;;;;;;;13.77;9.73;;;5.00;99.80;;;;;;5012045;28;20205;-62
2022/01/27 13:12:43;;;;;;;13.75;10.10;;;4.80;99.90;;;;;;5014539;28;20225;-63
2022/01/27 13:15:13;;;;;;;14.02;9.38;;;5.30;99.90;;;;;;5011181;28;20710;-63
2022/01/27 13:17:47;;;;;;;16.65;10.55;;;4.60;99.30;;;;;;5005882;28;20734;-58
2022/01/27 13:20:28;;;;;;;13.30;9.40;;;5.10;99.50;;;;;;5010833;28;20284;-59
2022/01/27 13:23:05;;;;;;;15.05;9.98;;;5.00;99.80;;;;;;5016593;28;20218;-66
2022/01/27 13:25:38;;;;;;;15.40;9.20;;;5.20;99.70;;;;;;5009510;28;20537;-70
2022/01/27 13:28:10;;;;;;;13.55;9.50;;;5.10;99.40;;;;;;5016720;28;20580;-70
2022/01/27 13:30:37;;;;;;;12.88;9.18;;;5.40;99.30;;;;;;5017253;28;20191;-65